sensor_id;sensor_type;location;lat;lon;timestamp;P1;durP1;ratioP1;P2;durP2;ratioP2
34725;SDS011;20951;50.818;4.344;2023-05-07T00:00:51;9.82;;;3.40;;
34725;SDS011;20951;50.818;4.344;2023-05-07T00:03:27;12.02;;;3.60;;
34725;SDS011;20951;50.818;4.344;2023-05-07T00:06:04;9.75;;;3.30;;
34725;SDS011;20951;50.818;4.344;2023-05-07T00:08:40;8.57;;;3.42;;
34725;SDS011;20951;50.818;4.344;2023-05-07T00:11:23;9.75;;;3.13;;
34725;SDS011;20951;50.818;4.344;2023-05-07T00:14:02;10.05;;;3.53;;
34725;SDS011;20951;50.818;4.344;2023-05-07T00:16:37;9.50;;;3.33;;
34725;SDS011;20951;50.818;4.344;2023-05-07T00:19:15;10.60;;;3.40;;
34725;SDS011;20951;50.818;4.344;2023-05-07T00:21:41;10.77;;;3.53;;
34725;SDS011;20951;50.818;4.344;2023-05-07T00:24:23;9.32;;;2.83;;
34725;SDS011;20951;50.818;4.344;2023-05-07T00:26:49;9.57;;;3.08;;
34725;SDS011;20951;50.818;4.344;2023-05-07T00:29:25;9.52;;;3.55;;
34725;SDS011;20951;50.818;4.344;2023-05-07T00:32:02;8.15;;;3.08;;
34725;SDS011;20951;50.818;4.344;2023-05-07T00:34:45;10.95;;;3.25;;
34725;SDS011;20951;50.818;4.344;2023-05-07T00:37:24;8.93;;;3.35;;
34725;SDS011;20951;50.818;4.344;2023-05-07T00:39:55;8.02;;;3.42;;
34725;SDS011;20951;50.818;4.344;2023-05-07T00:42:31;10.20;;;3.53;;
34725;SDS011;20951;50.818;4.344;2023-05-07T00:45:12;8.23;;;3.22;;
34725;SDS011;20951;50.818;4.344;2023-05-07T00:50:55;9.60;;;3.22;;
34725;SDS011;20951;50.818;4.344;2023-05-07T00:53:34;8.73;;;3.70;;
34725;SDS011;20951;50.818;4.344;2023-05-07T00:56:00;10.00;;;3.33;;
34725;SDS011;20951;50.818;4.344;2023-05-07T00:58:46;10.35;;;3.20;;
34725;SDS011;20951;50.818;4.344;2023-05-07T01:01:26;8.50;;;3.40;;
34725;SDS011;20951;50.818;4.344;2023-05-07T01:04:04;13.50;;;3.50;;
34725;SDS011;20951;50.818;4.344;2023-05-07T01:06:40;12.05;;;4.20;;
34725;SDS011;20951;50.818;4.344;2023-05-07T01:09:06;9.93;;;3.58;;
34725;SDS011;20951;50.818;4.344;2023-05-07T01:11:42;11.80;;;3.38;;
34725;SDS011;20951;50.818;4.344;2023-05-07T01:14:19;8.15;;;3.13;;
34725;SDS011;20951;50.818;4.344;2023-05-07T01:17:04;9.75;;;3.15;;
34725;SDS011;20951;50.818;4.344;2023-05-07T01:19:41;8.40;;;3.58;;
34725;SDS011;20951;50.818;4.344;2023-05-07T01:22:28;13.85;;;3.47;;
34725;SDS011;20951;50.818;4.344;2023-05-07T01:25:04;10.32;;;3.30;;
34725;SDS011;20951;50.818;4.344;2023-05-07T01:27:35;11.45;;;3.75;;
34725;SDS011;20951;50.818;4.344;2023-05-07T01:30:04;7.50;;;3.00;;
34725;SDS011;20951;50.818;4.344;2023-05-07T01:32:32;9.77;;;3.33;;
34725;SDS011;20951;50.818;4.344;2023-05-07T01:35:13;11.02;;;3.75;;
34725;SDS011;20951;50.818;4.344;2023-05-07T01:37:56;14.33;;;3.90;;
34725;SDS011;20951;50.818;4.344;2023-05-07T01:40:35;8.40;;;3.17;;
34725;SDS011;20951;50.818;4.344;2023-05-07T01:43:17;13.00;;;3.65;;
34725;SDS011;20951;50.818;4.344;2023-05-07T01:45:53;10.02;;;3.72;;
34725;SDS011;20951;50.818;4.344;2023-05-07T01:48:19;13.32;;;3.60;;
34725;SDS011;20951;50.818;4.344;2023-05-07T01:51:06;12.27;;;3.47;;
34725;SDS011;20951;50.818;4.344;2023-05-07T01:53:46;9.52;;;3.17;;
34725;SDS011;20951;50.818;4.344;2023-05-07T01:56:29;9.02;;;2.88;;
34725;SDS011;20951;50.818;4.344;2023-05-07T01:59:05;11.43;;;3.42;;
34725;SDS011;20951;50.818;4.344;2023-05-07T02:01:41;9.15;;;3.20;;
34725;SDS011;20951;50.818;4.344;2023-05-07T02:04:20;9.77;;;3.10;;
34725;SDS011;20951;50.818;4.344;2023-05-07T02:06:58;9.75;;;3.10;;
34725;SDS011;20951;50.818;4.344;2023-05-07T02:09:33;10.73;;;3.25;;
34725;SDS011;20951;50.818;4.344;2023-05-07T02:12:04;11.95;;;3.50;;
34725;SDS011;20951;50.818;4.344;2023-05-07T02:14:45;10.30;;;3.20;;
34725;SDS011;20951;50.818;4.344;2023-05-07T02:17:22;9.50;;;3.17;;
34725;SDS011;20951;50.818;4.344;2023-05-07T02:19:58;10.52;;;3.25;;
34725;SDS011;20951;50.818;4.344;2023-05-07T02:22:38;10.90;;;3.00;;
34725;SDS011;20951;50.818;4.344;2023-05-07T02:25:06;10.55;;;3.03;;
34725;SDS011;20951;50.818;4.344;2023-05-07T02:27:45;9.27;;;2.80;;
34725;SDS011;20951;50.818;4.344;2023-05-07T02:30:14;11.75;;;2.97;;
34725;SDS011;20951;50.818;4.344;2023-05-07T02:32:50;12.10;;;3.53;;
34725;SDS011;20951;50.818;4.344;2023-05-07T02:35:16;9.88;;;3.15;;
34725;SDS011;20951;50.818;4.344;2023-05-07T02:37:52;10.05;;;3.13;;
34725;SDS011;20951;50.818;4.344;2023-05-07T02:40:28;10.13;;;3.50;;
34725;SDS011;20951;50.818;4.344;2023-05-07T02:43:04;11.38;;;3.30;;
34725;SDS011;20951;50.818;4.344;2023-05-07T02:45:31;10.25;;;3.00;;
34725;SDS011;20951;50.818;4.344;2023-05-07T02:48:01;11.55;;;3.38;;
34725;SDS011;20951;50.818;4.344;2023-05-07T02:50:37;7.93;;;3.10;;
34725;SDS011;20951;50.818;4.344;2023-05-07T02:53:20;10.93;;;3.10;;
34725;SDS011;20951;50.818;4.344;2023-05-07T02:55:57;8.38;;;3.17;;
34725;SDS011;20951;50.818;4.344;2023-05-07T02:58:36;10.82;;;3.25;;
34725;SDS011;20951;50.818;4.344;2023-05-07T03:01:12;9.20;;;2.92;;
34725;SDS011;20951;50.818;4.344;2023-05-07T03:03:51;7.82;;;2.90;;
34725;SDS011;20951;50.818;4.344;2023-05-07T03:06:27;10.75;;;3.03;;
34725;SDS011;20951;50.818;4.344;2023-05-07T03:08:53;11.52;;;3.00;;
34725;SDS011;20951;50.818;4.344;2023-05-07T03:11:29;9.85;;;2.92;;
34725;SDS011;20951;50.818;4.344;2023-05-07T03:14:09;12.30;;;3.50;;
34725;SDS011;20951;50.818;4.344;2023-05-07T03:16:35;9.05;;;3.20;;
34725;SDS011;20951;50.818;4.344;2023-05-07T03:19:03;9.93;;;3.33;;
34725;SDS011;20951;50.818;4.344;2023-05-07T03:21:29;10.93;;;3.05;;
34725;SDS011;20951;50.818;4.344;2023-05-07T03:24:06;8.52;;;3.00;;
34725;SDS011;20951;50.818;4.344;2023-05-07T03:26:42;12.57;;;3.60;;
34725;SDS011;20951;50.818;4.344;2023-05-07T03:29:10;9.18;;;3.60;;
34725;SDS011;20951;50.818;4.344;2023-05-07T03:31:44;9.50;;;3.25;;
34725;SDS011;20951;50.818;4.344;2023-05-07T03:34:12;11.75;;;3.10;;
34725;SDS011;20951;50.818;4.344;2023-05-07T03:36:52;10.60;;;2.97;;
34725;SDS011;20951;50.818;4.344;2023-05-07T03:39:21;8.82;;;2.65;;
34725;SDS011;20951;50.818;4.344;2023-05-07T03:41:49;11.95;;;2.78;;
34725;SDS011;20951;50.818;4.344;2023-05-07T03:44:23;10.25;;;2.83;;
34725;SDS011;20951;50.818;4.344;2023-05-07T03:47:04;8.63;;;2.80;;
34725;SDS011;20951;50.818;4.344;2023-05-07T03:49:40;9.43;;;2.70;;
34725;SDS011;20951;50.818;4.344;2023-05-07T03:52:13;14.07;;;3.17;;
34725;SDS011;20951;50.818;4.344;2023-05-07T03:54:40;10.75;;;3.00;;
34725;SDS011;20951;50.818;4.344;2023-05-07T03:57:23;8.50;;;2.78;;
34725;SDS011;20951;50.818;4.344;2023-05-07T03:59:49;8.02;;;2.60;;
34725;SDS011;20951;50.818;4.344;2023-05-07T04:02:23;11.52;;;2.65;;
34725;SDS011;20951;50.818;4.344;2023-05-07T04:04:59;10.82;;;3.05;;
34725;SDS011;20951;50.818;4.344;2023-05-07T04:07:25;9.50;;;2.92;;
34725;SDS011;20951;50.818;4.344;2023-05-07T04:09:53;9.27;;;2.72;;
34725;SDS011;20951;50.818;4.344;2023-05-07T04:12:32;8.13;;;2.67;;
34725;SDS011;20951;50.818;4.344;2023-05-07T04:15:00;10.93;;;2.60;;
34725;SDS011;20951;50.818;4.344;2023-05-07T04:17:26;7.57;;;2.40;;
34725;SDS011;20951;50.818;4.344;2023-05-07T04:20:09;9.20;;;2.92;;
34725;SDS011;20951;50.818;4.344;2023-05-07T04:22:43;7.80;;;2.83;;
34725;SDS011;20951;50.818;4.344;2023-05-07T04:25:21;9.23;;;2.50;;
34725;SDS011;20951;50.818;4.344;2023-05-07T04:27:51;7.45;;;2.70;;
34725;SDS011;20951;50.818;4.344;2023-05-07T04:30:27;8.90;;;2.40;;
34725;SDS011;20951;50.818;4.344;2023-05-07T04:33:07;7.80;;;2.45;;
34725;SDS011;20951;50.818;4.344;2023-05-07T04:35:36;12.27;;;4.20;;
34725;SDS011;20951;50.818;4.344;2023-05-07T04:38:05;10.27;;;3.38;;
34725;SDS011;20951;50.818;4.344;2023-05-07T04:40:40;11.48;;;3.25;;
34725;SDS011;20951;50.818;4.344;2023-05-07T04:43:25;10.50;;;2.85;;
34725;SDS011;20951;50.818;4.344;2023-05-07T04:45:58;11.73;;;3.17;;
34725;SDS011;20951;50.818;4.344;2023-05-07T04:48:34;12.30;;;2.78;;
34725;SDS011;20951;50.818;4.344;2023-05-07T04:51:03;11.90;;;2.63;;
34725;SDS011;20951;50.818;4.344;2023-05-07T04:53:32;7.97;;;2.60;;
34725;SDS011;20951;50.818;4.344;2023-05-07T04:56:08;11.18;;;2.90;;
34725;SDS011;20951;50.818;4.344;2023-05-07T04:58:49;10.30;;;2.70;;
34725;SDS011;20951;50.818;4.344;2023-05-07T05:01:25;7.20;;;2.13;;
34725;SDS011;20951;50.818;4.344;2023-05-07T05:03:53;8.48;;;2.70;;
34725;SDS011;20951;50.818;4.344;2023-05-07T05:06:25;8.45;;;2.80;;
34725;SDS011;20951;50.818;4.344;2023-05-07T05:08:53;8.90;;;2.65;;
34725;SDS011;20951;50.818;4.344;2023-05-07T05:11:22;8.88;;;2.50;;
34725;SDS011;20951;50.818;4.344;2023-05-07T05:13:58;8.80;;;2.55;;
34725;SDS011;20951;50.818;4.344;2023-05-07T05:16:27;8.88;;;3.03;;
34725;SDS011;20951;50.818;4.344;2023-05-07T05:18:53;8.80;;;2.83;;
34725;SDS011;20951;50.818;4.344;2023-05-07T05:21:23;7.85;;;2.80;;
34725;SDS011;20951;50.818;4.344;2023-05-07T05:23:49;9.30;;;2.97;;
34725;SDS011;20951;50.818;4.344;2023-05-07T05:26:28;8.63;;;2.72;;
34725;SDS011;20951;50.818;4.344;2023-05-07T05:29:04;10.57;;;3.05;;
34725;SDS011;20951;50.818;4.344;2023-05-07T05:31:33;9.48;;;3.10;;
34725;SDS011;20951;50.818;4.344;2023-05-07T05:34:08;11.85;;;3.40;;
34725;SDS011;20951;50.818;4.344;2023-05-07T05:36:44;11.10;;;3.30;;
34725;SDS011;20951;50.818;4.344;2023-05-07T05:39:13;9.73;;;3.35;;
34725;SDS011;20951;50.818;4.344;2023-05-07T05:41:49;14.43;;;3.55;;
34725;SDS011;20951;50.818;4.344;2023-05-07T05:44:18;10.07;;;3.75;;
34725;SDS011;20951;50.818;4.344;2023-05-07T05:46:54;11.07;;;3.50;;
34725;SDS011;20951;50.818;4.344;2023-05-07T05:49:33;9.98;;;3.38;;
34725;SDS011;20951;50.818;4.344;2023-05-07T05:52:08;11.23;;;3.80;;
34725;SDS011;20951;50.818;4.344;2023-05-07T05:54:49;13.27;;;4.35;;
34725;SDS011;20951;50.818;4.344;2023-05-07T05:57:15;7.38;;;3.78;;
34725;SDS011;20951;50.818;4.344;2023-05-07T05:59:44;12.45;;;4.97;;
34725;SDS011;20951;50.818;4.344;2023-05-07T06:02:20;12.57;;;4.93;;
34725;SDS011;20951;50.818;4.344;2023-05-07T06:04:48;16.90;;;6.07;;
34725;SDS011;20951;50.818;4.344;2023-05-07T06:07:14;18.23;;;5.70;;
34725;SDS011;20951;50.818;4.344;2023-05-07T06:09:49;13.65;;;6.10;;
34725;SDS011;20951;50.818;4.344;2023-05-07T06:12:26;14.30;;;5.80;;
34725;SDS011;20951;50.818;4.344;2023-05-07T06:15:10;15.68;;;5.97;;
34725;SDS011;20951;50.818;4.344;2023-05-07T06:17:46;14.65;;;6.03;;
34725;SDS011;20951;50.818;4.344;2023-05-07T06:20:27;11.32;;;6.13;;
34725;SDS011;20951;50.818;4.344;2023-05-07T06:23:04;13.98;;;6.25;;
34725;SDS011;20951;50.818;4.344;2023-05-07T06:25:41;16.55;;;6.70;;
34725;SDS011;20951;50.818;4.344;2023-05-07T06:28:17;13.55;;;6.18;;
34725;SDS011;20951;50.818;4.344;2023-05-07T06:30:53;14.77;;;6.25;;
34725;SDS011;20951;50.818;4.344;2023-05-07T06:33:29;14.23;;;6.05;;
34725;SDS011;20951;50.818;4.344;2023-05-07T06:36:06;13.65;;;5.88;;
34725;SDS011;20951;50.818;4.344;2023-05-07T06:38:42;13.20;;;5.78;;
34725;SDS011;20951;50.818;4.344;2023-05-07T06:41:20;16.42;;;5.85;;
34725;SDS011;20951;50.818;4.344;2023-05-07T06:44:09;9.65;;;5.57;;
34725;SDS011;20951;50.818;4.344;2023-05-07T06:47:01;10.60;;;5.40;;
34725;SDS011;20951;50.818;4.344;2023-05-07T06:49:49;13.27;;;5.95;;
34725;SDS011;20951;50.818;4.344;2023-05-07T06:52:28;11.45;;;5.32;;
34725;SDS011;20951;50.818;4.344;2023-05-07T06:54:56;12.55;;;5.97;;
34725;SDS011;20951;50.818;4.344;2023-05-07T06:57:27;14.27;;;6.05;;
34725;SDS011;20951;50.818;4.344;2023-05-07T07:00:02;10.45;;;5.68;;
34725;SDS011;20951;50.818;4.344;2023-05-07T07:02:40;14.05;;;5.65;;
34725;SDS011;20951;50.818;4.344;2023-05-07T07:05:16;13.35;;;6.13;;
34725;SDS011;20951;50.818;4.344;2023-05-07T07:07:42;13.73;;;5.90;;
34725;SDS011;20951;50.818;4.344;2023-05-07T07:10:17;13.48;;;6.10;;
34725;SDS011;20951;50.818;4.344;2023-05-07T07:12:50;12.57;;;6.15;;
34725;SDS011;20951;50.818;4.344;2023-05-07T07:15:19;12.02;;;5.82;;
34725;SDS011;20951;50.818;4.344;2023-05-07T07:17:54;13.85;;;6.15;;
34725;SDS011;20951;50.818;4.344;2023-05-07T07:20:30;12.82;;;6.22;;
34725;SDS011;20951;50.818;4.344;2023-05-07T07:23:05;11.35;;;5.82;;
34725;SDS011;20951;50.818;4.344;2023-05-07T07:25:41;12.10;;;5.80;;
34725;SDS011;20951;50.818;4.344;2023-05-07T07:28:20;9.85;;;5.72;;
34725;SDS011;20951;50.818;4.344;2023-05-07T07:30:57;13.02;;;6.40;;
34725;SDS011;20951;50.818;4.344;2023-05-07T07:33:33;10.93;;;5.95;;
34725;SDS011;20951;50.818;4.344;2023-05-07T07:36:09;13.80;;;6.47;;
34725;SDS011;20951;50.818;4.344;2023-05-07T07:38:45;15.60;;;6.35;;
34725;SDS011;20951;50.818;4.344;2023-05-07T07:41:11;11.75;;;6.03;;
34725;SDS011;20951;50.818;4.344;2023-05-07T07:43:37;13.10;;;6.18;;
34725;SDS011;20951;50.818;4.344;2023-05-07T07:46:15;11.20;;;6.13;;
34725;SDS011;20951;50.818;4.344;2023-05-07T07:48:52;9.77;;;5.72;;
34725;SDS011;20951;50.818;4.344;2023-05-07T07:51:28;9.52;;;5.65;;
34725;SDS011;20951;50.818;4.344;2023-05-07T07:53:54;9.20;;;5.50;;
34725;SDS011;20951;50.818;4.344;2023-05-07T07:56:30;11.55;;;5.88;;
34725;SDS011;20951;50.818;4.344;2023-05-07T07:59:03;13.23;;;5.72;;
34725;SDS011;20951;50.818;4.344;2023-05-07T08:01:39;11.52;;;5.95;;
34725;SDS011;20951;50.818;4.344;2023-05-07T08:04:15;11.20;;;6.20;;
34725;SDS011;20951;50.818;4.344;2023-05-07T08:06:43;13.57;;;6.90;;
34725;SDS011;20951;50.818;4.344;2023-05-07T08:09:19;9.15;;;5.47;;
34725;SDS011;20951;50.818;4.344;2023-05-07T08:11:55;12.32;;;5.65;;
34725;SDS011;20951;50.818;4.344;2023-05-07T08:14:32;11.85;;;6.13;;
34725;SDS011;20951;50.818;4.344;2023-05-07T08:17:08;11.02;;;5.80;;
34725;SDS011;20951;50.818;4.344;2023-05-07T08:19:47;11.68;;;6.07;;
34725;SDS011;20951;50.818;4.344;2023-05-07T08:22:13;11.88;;;5.40;;
34725;SDS011;20951;50.818;4.344;2023-05-07T08:24:48;10.65;;;5.30;;
34725;SDS011;20951;50.818;4.344;2023-05-07T08:27:27;11.38;;;5.93;;
34725;SDS011;20951;50.818;4.344;2023-05-07T08:29:53;10.38;;;6.10;;
34725;SDS011;20951;50.818;4.344;2023-05-07T08:32:23;11.63;;;6.50;;
34725;SDS011;20951;50.818;4.344;2023-05-07T08:35:00;11.48;;;5.72;;
34725;SDS011;20951;50.818;4.344;2023-05-07T08:37:33;10.63;;;6.32;;
34725;SDS011;20951;50.818;4.344;2023-05-07T08:40:09;11.63;;;6.68;;
34725;SDS011;20951;50.818;4.344;2023-05-07T08:42:45;9.50;;;5.50;;
34725;SDS011;20951;50.818;4.344;2023-05-07T08:45:24;11.98;;;5.80;;
34725;SDS011;20951;50.818;4.344;2023-05-07T08:48:03;9.18;;;4.88;;
34725;SDS011;20951;50.818;4.344;2023-05-07T08:50:43;10.18;;;5.20;;
34725;SDS011;20951;50.818;4.344;2023-05-07T08:53:19;8.52;;;4.47;;
34725;SDS011;20951;50.818;4.344;2023-05-07T08:56:00;9.20;;;4.88;;
34725;SDS011;20951;50.818;4.344;2023-05-07T08:58:27;12.07;;;5.47;;
34725;SDS011;20951;50.818;4.344;2023-05-07T09:00:53;9.98;;;5.13;;
34725;SDS011;20951;50.818;4.344;2023-05-07T09:03:24;10.02;;;5.32;;
34725;SDS011;20951;50.818;4.344;2023-05-07T09:06:00;10.65;;;4.93;;
34725;SDS011;20951;50.818;4.344;2023-05-07T09:08:36;8.25;;;5.22;;
34725;SDS011;20951;50.818;4.344;2023-05-07T09:11:05;10.07;;;5.10;;
34725;SDS011;20951;50.818;4.344;2023-05-07T09:13:40;8.18;;;4.72;;
34725;SDS011;20951;50.818;4.344;2023-05-07T09:16:10;9.65;;;4.47;;
34725;SDS011;20951;50.818;4.344;2023-05-07T09:18:44;9.32;;;4.97;;
34725;SDS011;20951;50.818;4.344;2023-05-07T09:21:16;8.48;;;4.63;;
34725;SDS011;20951;50.818;4.344;2023-05-07T09:23:42;9.65;;;4.25;;
34725;SDS011;20951;50.818;4.344;2023-05-07T09:26:21;7.53;;;3.85;;
34725;SDS011;20951;50.818;4.344;2023-05-07T09:29:00;10.43;;;3.65;;
34725;SDS011;20951;50.818;4.344;2023-05-07T09:31:38;7.80;;;3.80;;
34725;SDS011;20951;50.818;4.344;2023-05-07T09:34:19;8.05;;;3.78;;
34725;SDS011;20951;50.818;4.344;2023-05-07T09:36:45;9.73;;;3.97;;
34725;SDS011;20951;50.818;4.344;2023-05-07T09:39:19;9.65;;;4.03;;
34725;SDS011;20951;50.818;4.344;2023-05-07T09:41:48;8.10;;;3.42;;
34725;SDS011;20951;50.818;4.344;2023-05-07T09:44:21;7.57;;;3.60;;
34725;SDS011;20951;50.818;4.344;2023-05-07T09:46:50;7.82;;;3.72;;
34725;SDS011;20951;50.818;4.344;2023-05-07T09:49:30;6.38;;;3.13;;
34725;SDS011;20951;50.818;4.344;2023-05-07T09:52:13;8.70;;;3.15;;
34725;SDS011;20951;50.818;4.344;2023-05-07T09:54:42;7.05;;;3.58;;
34725;SDS011;20951;50.818;4.344;2023-05-07T09:57:13;8.93;;;4.30;;
34725;SDS011;20951;50.818;4.344;2023-05-07T09:59:49;9.45;;;4.10;;
34725;SDS011;20951;50.818;4.344;2023-05-07T10:02:17;8.75;;;4.45;;
34725;SDS011;20951;50.818;4.344;2023-05-07T10:04:51;9.48;;;4.53;;
34725;SDS011;20951;50.818;4.344;2023-05-07T10:07:29;8.57;;;4.70;;
34725;SDS011;20951;50.818;4.344;2023-05-07T10:10:04;7.88;;;4.53;;
34725;SDS011;20951;50.818;4.344;2023-05-07T10:12:49;9.68;;;5.05;;
34725;SDS011;20951;50.818;4.344;2023-05-07T10:17:53;9.32;;;5.28;;
34725;SDS011;20951;50.818;4.344;2023-05-07T10:20:55;9.00;;;5.88;;
34725;SDS011;20951;50.818;4.344;2023-05-07T10:26:42;8.65;;;4.75;;
34725;SDS011;20951;50.818;4.344;2023-05-07T10:29:33;6.40;;;3.38;;
34725;SDS011;20951;50.818;4.344;2023-05-07T10:35:32;8.63;;;3.33;;
34725;SDS011;20951;50.818;4.344;2023-05-07T10:38:17;6.22;;;2.97;;
34725;SDS011;20951;50.818;4.344;2023-05-07T10:40:55;7.20;;;3.30;;
34725;SDS011;20951;50.818;4.344;2023-05-07T10:46:27;5.25;;;3.00;;
34725;SDS011;20951;50.818;4.344;2023-05-07T10:51:36;4.53;;;2.57;;
34725;SDS011;20951;50.818;4.344;2023-05-07T10:56:40;7.07;;;3.22;;
34725;SDS011;20951;50.818;4.344;2023-05-07T11:02:00;7.53;;;3.33;;
34725;SDS011;20951;50.818;4.344;2023-05-07T11:04:39;7.00;;;3.53;;
34725;SDS011;20951;50.818;4.344;2023-05-07T11:07:24;7.30;;;3.42;;
34725;SDS011;20951;50.818;4.344;2023-05-07T11:15:07;6.28;;;3.20;;
34725;SDS011;20951;50.818;4.344;2023-05-07T11:17:54;7.05;;;3.42;;
34725;SDS011;20951;50.818;4.344;2023-05-07T11:20:20;6.78;;;3.03;;
34725;SDS011;20951;50.818;4.344;2023-05-07T11:26:29;6.00;;;3.00;;
34725;SDS011;20951;50.818;4.344;2023-05-07T11:29:09;6.57;;;3.80;;
34725;SDS011;20951;50.818;4.344;2023-05-07T11:31:56;5.55;;;3.35;;
34725;SDS011;20951;50.818;4.344;2023-05-07T11:34:31;7.28;;;3.90;;
34725;SDS011;20951;50.818;4.344;2023-05-07T11:37:07;7.05;;;4.07;;
34725;SDS011;20951;50.818;4.344;2023-05-07T11:40:01;8.00;;;4.60;;
34725;SDS011;20951;50.818;4.344;2023-05-07T11:42:39;7.13;;;4.10;;
34725;SDS011;20951;50.818;4.344;2023-05-07T11:45:08;7.03;;;3.97;;
34725;SDS011;20951;50.818;4.344;2023-05-07T11:47:34;8.80;;;4.10;;
34725;SDS011;20951;50.818;4.344;2023-05-07T11:50:06;7.80;;;3.65;;
34725;SDS011;20951;50.818;4.344;2023-05-07T11:52:36;6.00;;;3.07;;
34725;SDS011;20951;50.818;4.344;2023-05-07T11:55:10;7.40;;;3.40;;
34725;SDS011;20951;50.818;4.344;2023-05-07T11:57:47;8.10;;;3.72;;
34725;SDS011;20951;50.818;4.344;2023-05-07T12:00:16;7.38;;;3.67;;
34725;SDS011;20951;50.818;4.344;2023-05-07T12:02:49;6.50;;;3.38;;
34725;SDS011;20951;50.818;4.344;2023-05-07T12:05:18;6.22;;;3.45;;
34725;SDS011;20951;50.818;4.344;2023-05-07T12:07:57;6.22;;;3.15;;
34725;SDS011;20951;50.818;4.344;2023-05-07T12:10:23;4.75;;;2.90;;
34725;SDS011;20951;50.818;4.344;2023-05-07T12:13:01;7.13;;;3.53;;
34725;SDS011;20951;50.818;4.344;2023-05-07T12:15:27;5.50;;;2.90;;
34725;SDS011;20951;50.818;4.344;2023-05-07T12:18:05;6.13;;;3.38;;
34725;SDS011;20951;50.818;4.344;2023-05-07T12:20:31;6.40;;;3.50;;
34725;SDS011;20951;50.818;4.344;2023-05-07T12:23:02;6.78;;;3.88;;
34725;SDS011;20951;50.818;4.344;2023-05-07T12:25:31;7.22;;;4.80;;
34725;SDS011;20951;50.818;4.344;2023-05-07T12:28:18;6.63;;;4.18;;
34725;SDS011;20951;50.818;4.344;2023-05-07T12:30:48;6.25;;;4.25;;
34725;SDS011;20951;50.818;4.344;2023-05-07T12:33:26;7.22;;;4.95;;
34725;SDS011;20951;50.818;4.344;2023-05-07T12:36:05;6.95;;;5.35;;
34725;SDS011;20951;50.818;4.344;2023-05-07T12:38:35;7.53;;;5.50;;
34725;SDS011;20951;50.818;4.344;2023-05-07T12:41:18;9.07;;;6.47;;
34725;SDS011;20951;50.818;4.344;2023-05-07T12:43:44;7.18;;;6.20;;
34725;SDS011;20951;50.818;4.344;2023-05-07T12:46:11;8.35;;;6.82;;
34725;SDS011;20951;50.818;4.344;2023-05-07T12:48:53;9.60;;;7.10;;
34725;SDS011;20951;50.818;4.344;2023-05-07T12:51:21;8.05;;;6.80;;
34725;SDS011;20951;50.818;4.344;2023-05-07T12:53:56;9.82;;;8.13;;
34725;SDS011;20951;50.818;4.344;2023-05-07T12:56:25;11.35;;;7.82;;
34725;SDS011;20951;50.818;4.344;2023-05-07T12:58:58;9.95;;;8.52;;
34725;SDS011;20951;50.818;4.344;2023-05-07T13:01:33;8.68;;;7.78;;
34725;SDS011;20951;50.818;4.344;2023-05-07T13:04:02;10.23;;;8.90;;
34725;SDS011;20951;50.818;4.344;2023-05-07T13:06:36;9.88;;;8.63;;
34725;SDS011;20951;50.818;4.344;2023-05-07T13:09:14;11.10;;;8.80;;
34725;SDS011;20951;50.818;4.344;2023-05-07T13:11:50;11.13;;;8.80;;
34725;SDS011;20951;50.818;4.344;2023-05-07T13:14:31;11.13;;;9.05;;
34725;SDS011;20951;50.818;4.344;2023-05-07T13:16:57;10.75;;;8.98;;
34725;SDS011;20951;50.818;4.344;2023-05-07T13:19:33;10.25;;;8.68;;
34725;SDS011;20951;50.818;4.344;2023-05-07T13:22:08;11.00;;;8.60;;
34725;SDS011;20951;50.818;4.344;2023-05-07T13:24:43;9.45;;;8.45;;
34725;SDS011;20951;50.818;4.344;2023-05-07T13:27:24;10.55;;;8.90;;
34725;SDS011;20951;50.818;4.344;2023-05-07T13:30:00;11.25;;;10.02;;
34725;SDS011;20951;50.818;4.344;2023-05-07T13:32:36;11.23;;;10.13;;
34725;SDS011;20951;50.818;4.344;2023-05-07T13:35:05;11.35;;;10.15;;
34725;SDS011;20951;50.818;4.344;2023-05-07T13:37:43;12.73;;;11.43;;
34725;SDS011;20951;50.818;4.344;2023-05-07T13:40:22;14.27;;;12.77;;
34725;SDS011;20951;50.818;4.344;2023-05-07T13:42:58;13.30;;;12.00;;
34725;SDS011;20951;50.818;4.344;2023-05-07T13:45:32;13.25;;;11.43;;
34725;SDS011;20951;50.818;4.344;2023-05-07T13:48:08;14.15;;;12.73;;
34725;SDS011;20951;50.818;4.344;2023-05-07T13:50:34;13.82;;;12.38;;
34725;SDS011;20951;50.818;4.344;2023-05-07T13:53:10;12.93;;;11.63;;
34725;SDS011;20951;50.818;4.344;2023-05-07T13:55:45;12.88;;;11.13;;
34725;SDS011;20951;50.818;4.344;2023-05-07T13:58:14;13.25;;;11.57;;
34725;SDS011;20951;50.818;4.344;2023-05-07T14:00:42;14.40;;;12.82;;
34725;SDS011;20951;50.818;4.344;2023-05-07T14:03:13;13.90;;;12.40;;
34725;SDS011;20951;50.818;4.344;2023-05-07T14:05:49;14.70;;;12.80;;
34725;SDS011;20951;50.818;4.344;2023-05-07T14:08:17;15.07;;;13.52;;
34725;SDS011;20951;50.818;4.344;2023-05-07T14:10:45;15.10;;;13.40;;
34725;SDS011;20951;50.818;4.344;2023-05-07T14:13:21;14.27;;;12.88;;
34725;SDS011;20951;50.818;4.344;2023-05-07T14:15:53;14.40;;;12.52;;
34725;SDS011;20951;50.818;4.344;2023-05-07T14:18:21;13.98;;;11.77;;
34725;SDS011;20951;50.818;4.344;2023-05-07T14:21:00;13.68;;;11.43;;
34725;SDS011;20951;50.818;4.344;2023-05-07T14:23:36;10.73;;;9.63;;
34725;SDS011;20951;50.818;4.344;2023-05-07T14:26:05;10.80;;;9.70;;
34725;SDS011;20951;50.818;4.344;2023-05-07T14:28:35;11.40;;;10.30;;
34725;SDS011;20951;50.818;4.344;2023-05-07T14:31:11;14.07;;;10.60;;
34725;SDS011;20951;50.818;4.344;2023-05-07T14:33:46;11.63;;;9.75;;
34725;SDS011;20951;50.818;4.344;2023-05-07T14:36:14;11.27;;;10.07;;
34725;SDS011;20951;50.818;4.344;2023-05-07T14:38:51;12.25;;;10.45;;
34725;SDS011;20951;50.818;4.344;2023-05-07T14:41:30;11.27;;;9.68;;
34725;SDS011;20951;50.818;4.344;2023-05-07T14:44:06;11.20;;;10.07;;
34725;SDS011;20951;50.818;4.344;2023-05-07T14:46:32;11.57;;;10.32;;
34725;SDS011;20951;50.818;4.344;2023-05-07T14:48:58;10.25;;;8.90;;
34725;SDS011;20951;50.818;4.344;2023-05-07T14:51:24;10.20;;;9.10;;
34725;SDS011;20951;50.818;4.344;2023-05-07T14:53:55;10.77;;;8.85;;
34725;SDS011;20951;50.818;4.344;2023-05-07T14:56:28;11.77;;;9.75;;
34725;SDS011;20951;50.818;4.344;2023-05-07T14:58:57;11.52;;;9.50;;
34725;SDS011;20951;50.818;4.344;2023-05-07T15:01:36;11.07;;;9.82;;
34725;SDS011;20951;50.818;4.344;2023-05-07T15:04:13;11.82;;;9.48;;
34725;SDS011;20951;50.818;4.344;2023-05-07T15:07:05;11.35;;;9.77;;
34725;SDS011;20951;50.818;4.344;2023-05-07T15:09:31;10.90;;;9.52;;
34725;SDS011;20951;50.818;4.344;2023-05-07T15:12:04;11.60;;;10.10;;
34725;SDS011;20951;50.818;4.344;2023-05-07T15:14:35;10.77;;;9.57;;
34725;SDS011;20951;50.818;4.344;2023-05-07T15:17:06;10.52;;;9.40;;
34725;SDS011;20951;50.818;4.344;2023-05-07T15:19:47;12.45;;;9.38;;
34725;SDS011;20951;50.818;4.344;2023-05-07T15:22:13;12.23;;;9.32;;
34725;SDS011;20951;50.818;4.344;2023-05-07T15:24:39;10.57;;;9.40;;
34725;SDS011;20951;50.818;4.344;2023-05-07T15:27:08;9.90;;;8.55;;
34725;SDS011;20951;50.818;4.344;2023-05-07T15:29:35;9.45;;;8.52;;
34725;SDS011;20951;50.818;4.344;2023-05-07T15:32:11;8.50;;;7.60;;
34725;SDS011;20951;50.818;4.344;2023-05-07T15:34:49;9.10;;;8.13;;
34725;SDS011;20951;50.818;4.344;2023-05-07T15:37:28;9.52;;;8.52;;
34725;SDS011;20951;50.818;4.344;2023-05-07T15:39:58;11.10;;;9.55;;
34725;SDS011;20951;50.818;4.344;2023-05-07T15:42:34;11.20;;;10.00;;
34725;SDS011;20951;50.818;4.344;2023-05-07T15:45:05;12.98;;;11.57;;
34725;SDS011;20951;50.818;4.344;2023-05-07T15:47:35;14.00;;;12.60;;
34725;SDS011;20951;50.818;4.344;2023-05-07T15:50:03;14.52;;;13.15;;
34725;SDS011;20951;50.818;4.344;2023-05-07T15:52:49;14.32;;;12.57;;